Time;durP1;ratioP1;P1;durP2;ratioP2;P2;SDS_P1;SDS_P2;PMS_P1;PMS_P2;Temp;Humidity;BMP_temperature;BMP_pressure;BME280_temperature;BME280_humidity;BME280_pressure;Samples;Min_cycle;Max_cycle;Signal;HPM_P1;HPM_P2
2023/10/09 00:01:01;;;;;;;1999.90;999.90;;;18.40;99.90;;;;;;5114350;28;20462;-69
2023/10/09 00:03:27;;;;;;;1999.90;999.90;;;18.50;99.90;;;;;;5114351;28;20490;-70
2023/10/09 00:05:53;;;;;;;1999.90;999.90;;;18.50;99.90;;;;;;5114254;28;20406;-70
2023/10/09 00:08:26;;;;;;;1999.90;999.90;;;18.50;99.90;;;;;;5113607;28;20451;-70
2023/10/09 00:10:57;;;;;;;1999.90;999.90;;;18.60;99.90;;;;;;5102095;28;20455;-72
2023/10/09 00:13:30;;;;;;;1999.90;999.90;;;18.70;99.90;;;;;;5112579;28;20777;-72
2023/10/09 00:16:14;;;;;;;1999.90;999.90;;;18.70;99.90;;;;;;5114010;28;20411;-72
2023/10/09 00:18:46;;;;;;;1999.90;999.90;;;18.70;99.90;;;;;;5114088;28;20409;-72
2023/10/09 00:21:20;;;;;;;1999.90;999.90;;;18.70;99.90;;;;;;5113040;28;20461;-69
2023/10/09 00:23:55;;;;;;;1999.90;999.90;;;18.70;99.90;;;;;;5112731;28;20391;-70
2023/10/09 00:26:21;;;;;;;1999.90;999.90;;;18.70;99.90;;;;;;5103235;28;20405;-71
2023/10/09 00:28:47;;;;;;;1999.90;999.90;;;18.70;99.90;;;;;;5113618;28;20400;-70
2023/10/09 00:31:16;;;;;;;1999.90;999.90;;;18.70;99.90;;;;;;5113692;28;20180;-70
2023/10/09 00:33:44;;;;;;;1999.90;999.90;;;18.60;99.90;;;;;;5113688;28;20403;-71
2023/10/09 00:36:14;;;;;;;1999.90;999.90;;;18.70;99.90;;;;;;5113703;28;20769;-70
2023/10/09 00:38:44;;;;;;;1999.90;999.90;;;18.70;99.90;;;;;;5113326;28;20408;-72
2023/10/09 00:41:10;;;;;;;1999.90;999.90;;;18.70;99.90;;;;;;5113464;28;20980;-71
2023/10/09 00:43:37;;;;;;;1999.90;999.90;;;18.60;99.90;;;;;;5113814;28;21037;-70
2023/10/09 00:46:12;;;;;;;1999.90;999.90;;;18.60;99.90;;;;;;5113393;28;20763;-72
2023/10/09 00:48:40;;;;;;;1999.90;999.90;;;18.60;99.90;;;;;;5113409;28;20478;-73
2023/10/09 00:51:17;;;;;;;1999.90;999.90;;;18.60;99.90;;;;;;5113454;28;20797;-70
2023/10/09 00:53:48;;;;;;;1999.90;999.90;;;18.50;99.90;;;;;;5113254;28;20431;-70
2023/10/09 00:59:14;;;;;;;1999.90;999.90;;;18.50;99.90;;;;;;5113194;28;20412;-70
2023/10/09 01:01:44;;;;;;;1999.90;999.90;;;18.50;99.90;;;;;;5113020;28;20430;-71
2023/10/09 01:04:10;;;;;;;1999.90;999.90;;;18.50;99.90;;;;;;5113169;28;20391;-73
2023/10/09 01:06:44;;;;;;;1999.90;999.90;;;18.50;99.90;;;;;;5113275;28;20410;-70
2023/10/09 01:09:14;;;;;;;1999.90;999.90;;;18.40;99.90;;;;;;5112707;28;20165;-70
2023/10/09 01:11:48;;;;;;;1999.90;999.90;;;18.40;99.90;;;;;;5112956;28;20439;-70
2023/10/09 01:14:15;;;;;;;1999.90;999.90;;;18.50;99.90;;;;;;5113089;28;20407;-70
2023/10/09 01:16:46;;;;;;;1999.90;999.90;;;18.60;99.90;;;;;;5112783;28;20401;-70
2023/10/09 01:19:30;;;;;;;1999.90;999.90;;;18.50;99.90;;;;;;5112636;28;20487;-70
2023/10/09 01:22:12;;;;;;;1999.90;999.90;;;18.60;99.90;;;;;;5112690;28;20421;-70
2023/10/09 01:24:38;;;;;;;1999.90;999.90;;;18.60;99.90;;;;;;5112741;28;20400;-70
2023/10/09 01:27:11;;;;;;;1999.90;999.90;;;18.60;99.90;;;;;;5112464;28;20404;-70
2023/10/09 01:29:36;;;;;;;1999.90;999.90;;;18.60;99.90;;;;;;5112943;28;20438;-70
2023/10/09 01:32:02;;;;;;;1999.90;999.90;;;18.60;99.90;;;;;;5105204;28;20978;-70
2023/10/09 01:34:38;;;;;;;1999.90;999.90;;;18.70;99.90;;;;;;5102137;28;20651;-70
2023/10/09 01:37:28;;;;;;;1999.90;999.90;;;18.70;99.90;;;;;;5092054;28;20174;-71
2023/10/09 01:40:15;;;;;;;1999.90;999.90;;;18.90;99.90;;;;;;5092844;28;20464;-70
2023/10/09 01:42:47;;;;;;;1999.90;999.90;;;18.70;99.90;;;;;;5096940;28;20407;-70
2023/10/09 01:45:26;;;;;;;1999.90;999.90;;;18.70;99.90;;;;;;5108809;28;20869;-71
2023/10/09 01:47:54;;;;;;;1999.90;999.90;;;18.70;99.90;;;;;;5112232;28;20880;-70
2023/10/09 01:50:22;;;;;;;1999.90;999.90;;;18.80;99.90;;;;;;5112357;28;20435;-70
2023/10/09 01:52:47;;;;;;;1999.90;999.90;;;18.70;99.90;;;;;;5112505;28;20417;-70
2023/10/09 01:55:27;;;;;;;1999.90;999.90;;;18.70;99.90;;;;;;5112267;28;20468;-70
2023/10/09 01:57:53;;;;;;;1999.90;999.90;;;18.70;99.90;;;;;;5112264;28;20185;-70
2023/10/09 02:00:23;;;;;;;1999.90;999.90;;;18.70;99.90;;;;;;5112108;28;20458;-70
2023/10/09 02:02:50;;;;;;;1999.90;999.90;;;18.70;99.90;;;;;;5112632;28;20181;-70
2023/10/09 02:07:51;;;;;;;1999.90;999.90;;;18.80;99.90;;;;;;5112244;28;20423;-70
2023/10/09 02:10:25;;;;;;;1999.90;999.90;;;18.70;99.90;;;;;;5111949;28;20426;-70
2023/10/09 02:12:59;;;;;;;1999.90;999.90;;;18.70;99.90;;;;;;5112263;28;20481;-70
2023/10/09 02:20:55;;;;;;;1999.90;999.90;;;18.70;99.90;;;;;;5112119;28;20461;-70
2023/10/09 02:23:24;;;;;;;1999.90;999.90;;;18.70;99.90;;;;;;5112080;28;20405;-70
2023/10/09 02:25:53;;;;;;;1999.90;999.90;;;18.80;99.90;;;;;;5112234;28;20826;-70
2023/10/09 02:28:18;;;;;;;1999.90;999.90;;;18.70;99.90;;;;;;5111915;28;20413;-70
2023/10/09 02:30:47;;;;;;;1999.90;999.90;;;18.70;99.90;;;;;;5111965;28;20427;-70
2023/10/09 02:33:30;;;;;;;1999.90;999.90;;;18.70;99.90;;;;;;5111850;28;20605;-70
2023/10/09 02:36:05;;;;;;;1999.90;999.90;;;18.70;99.90;;;;;;5111955;28;20408;-70
2023/10/09 02:38:34;;;;;;;1999.90;999.90;;;18.70;99.90;;;;;;5112010;28;20409;-70
2023/10/09 02:43:40;;;;;;;1999.90;999.90;;;18.70;99.90;;;;;;5113633;28;20406;-70
2023/10/09 02:46:20;;;;;;;1999.90;999.90;;;18.60;99.90;;;;;;5115813;28;20400;-71
2023/10/09 02:48:52;;;;;;;1999.90;999.90;;;18.60;99.90;;;;;;5115646;28;20896;-70
2023/10/09 02:51:32;;;;;;;1999.90;999.90;;;18.50;99.90;;;;;;5115868;28;20462;-70
2023/10/09 02:54:18;;;;;;;1999.90;999.90;;;18.40;99.90;;;;;;5115863;28;20936;-70
2023/10/09 02:56:47;;;;;;;1999.90;999.90;;;18.40;99.90;;;;;;5115504;28;20900;-70
2023/10/09 02:59:13;;;;;;;1999.90;999.90;;;18.40;99.90;;;;;;5115561;28;20493;-70
2023/10/09 03:01:40;;;;;;;1999.90;999.90;;;18.50;99.90;;;;;;5115450;28;20959;-70
2023/10/09 03:04:06;;;;;;;1999.90;999.90;;;18.60;99.90;;;;;;5115498;28;20431;-70
2023/10/09 03:06:35;;;;;;;1999.90;999.90;;;18.60;99.90;;;;;;5115458;28;20465;-70
2023/10/09 03:09:16;;;;;;;1999.90;999.90;;;18.60;99.90;;;;;;5115223;28;20417;-70
2023/10/09 03:11:53;;;;;;;1999.90;999.90;;;18.60;99.90;;;;;;5115160;28;20463;-70
2023/10/09 03:14:20;;;;;;;1999.90;999.90;;;18.50;99.90;;;;;;5115519;28;20412;-70
2023/10/09 03:16:48;;;;;;;1999.90;999.90;;;18.50;99.90;;;;;;5115242;28;20413;-70
2023/10/09 03:19:13;;;;;;;1999.90;999.90;;;18.50;99.90;;;;;;5115034;28;20404;-70
2023/10/09 03:21:39;;;;;;;1999.90;999.90;;;18.50;99.90;;;;;;5114993;28;20565;-70
2023/10/09 03:24:08;;;;;;;1999.90;999.90;;;18.50;99.90;;;;;;5115385;28;20180;-70
2023/10/09 03:26:34;;;;;;;1999.90;999.90;;;18.50;99.90;;;;;;5115065;28;20172;-70
2023/10/09 03:29:06;;;;;;;1999.90;999.90;;;18.50;99.90;;;;;;5115258;28;20426;-69
2023/10/09 03:31:33;;;;;;;1999.90;999.90;;;18.50;99.90;;;;;;5110395;28;20449;-69
2023/10/09 03:33:59;;;;;;;1999.90;999.90;;;18.50;99.90;;;;;;5098780;28;20429;-69
2023/10/09 03:36:26;;;;;;;1999.90;999.90;;;18.60;99.90;;;;;;5114897;28;20404;-69
2023/10/09 03:38:55;;;;;;;1999.90;999.90;;;18.60;99.90;;;;;;5114950;28;20802;-69
2023/10/09 03:41:21;;;;;;;1999.90;999.90;;;18.60;99.90;;;;;;5104511;28;20462;-69
2023/10/09 03:43:47;;;;;;;1999.90;999.90;;;18.60;99.90;;;;;;5106228;28;20900;-69
2023/10/09 03:46:20;;;;;;;1999.90;999.90;;;18.50;99.90;;;;;;5114720;28;20405;-69
2023/10/09 03:48:49;;;;;;;1999.90;999.90;;;18.50;99.90;;;;;;5114545;28;20605;-70
2023/10/09 03:51:21;;;;;;;1999.90;999.90;;;18.40;99.90;;;;;;5114575;28;20427;-69
2023/10/09 03:53:48;;;;;;;1999.90;999.90;;;18.40;99.90;;;;;;5114557;28;20406;-69
2023/10/09 03:56:16;;;;;;;1999.90;999.90;;;18.30;99.90;;;;;;5114739;28;20415;-69
2023/10/09 03:58:54;;;;;;;1999.90;999.90;;;18.30;99.90;;;;;;5114414;28;20406;-69
2023/10/09 04:03:59;;;;;;;1999.90;999.90;;;18.30;99.90;;;;;;5098907;28;20414;-69
2023/10/09 04:06:37;;;;;;;1999.90;999.90;;;18.30;99.90;;;;;;5114611;28;20383;-69
2023/10/09 04:11:46;;;;;;;1999.90;999.90;;;18.30;99.90;;;;;;5114003;28;20446;-69
2023/10/09 04:14:21;;;;;;;1999.90;999.90;;;18.30;99.90;;;;;;5114411;28;20423;-68
2023/10/09 04:17:04;;;;;;;1999.90;999.90;;;18.30;99.90;;;;;;5114311;28;20415;-69
2023/10/09 04:19:38;;;;;;;1999.90;999.90;;;18.30;99.90;;;;;;5114017;28;21114;-68
2023/10/09 04:22:07;;;;;;;1999.90;999.90;;;18.30;99.90;;;;;;5113931;28;20455;-68
2023/10/09 04:24:41;;;;;;;1999.90;999.90;;;18.30;99.90;;;;;;5113913;28;20397;-69
2023/10/09 04:27:08;;;;;;;1999.90;999.90;;;18.30;99.90;;;;;;5113833;28;20754;-70
2023/10/09 04:29:46;;;;;;;1999.90;999.90;;;18.20;99.90;;;;;;5113955;28;20497;-69
2023/10/09 04:32:16;;;;;;;1999.90;999.90;;;18.20;99.90;;;;;;5099086;28;20964;-71
2023/10/09 04:34:48;;;;;;;1999.90;999.90;;;18.20;99.90;;;;;;5101795;28;20422;-69
2023/10/09 04:39:47;;;;;;;1999.90;999.90;;;18.20;99.90;;;;;;5093247;28;20472;-70
2023/10/09 04:42:58;;;;;;;1999.90;999.90;;;18.20;99.90;;;;;;5093193;28;20813;-69
2023/10/09 04:47:36;;;;;;;1999.90;999.90;;;18.20;99.90;;;;;;5093286;28;20398;-69
2023/10/09 04:50:08;;;;;;;1999.90;999.90;;;18.20;99.90;;;;;;5093028;28;20415;-69
2023/10/09 04:57:45;;;;;;;1999.90;999.90;;;18.20;99.90;;;;;;5094366;28;20423;-72
2023/10/09 05:05:58;;;;;;;1999.90;999.90;;;18.10;99.90;;;;;;5092814;28;20406;-72
2023/10/09 05:16:13;;;;;;;1999.90;999.90;;;18.10;99.90;;;;;;5113064;28;20405;-69
2023/10/09 05:18:39;;;;;;;1999.90;999.90;;;18.00;99.90;;;;;;5111660;28;20416;-69
2023/10/09 05:23:48;;;;;;;1999.90;999.90;;;18.00;99.90;;;;;;5113051;28;20165;-69
2023/10/09 05:28:59;;;;;;;1999.90;999.90;;;18.00;99.90;;;;;;5112737;28;20457;-69
2023/10/09 05:31:56;;;;;;;1999.90;999.90;;;17.90;99.90;;;;;;5110859;28;21085;-74
2023/10/09 05:34:21;;;;;;;1999.90;999.90;;;17.90;99.90;;;;;;5087240;28;20252;-69
2023/10/09 05:36:47;;;;;;;1999.90;999.90;;;17.90;99.90;;;;;;5092739;28;20410;-69
2023/10/09 05:39:17;;;;;;;1999.90;999.90;;;17.80;99.90;;;;;;5092024;28;20447;-69
2023/10/09 05:41:52;;;;;;;1999.90;999.90;;;17.80;99.90;;;;;;5100461;28;20841;-69
2023/10/09 05:49:46;;;;;;;1999.90;999.90;;;17.90;99.90;;;;;;5072005;28;20406;-69
2023/10/09 05:55:49;;;;;;;1999.90;999.90;;;17.90;99.90;;;;;;5042937;28;20174;-69
2023/10/09 06:14:04;;;;;;;1999.90;999.90;;;18.00;99.90;;;;;;5112246;28;20471;-70
2023/10/09 06:16:41;;;;;;;1999.90;999.90;;;18.10;99.90;;;;;;5112104;28;20422;-68
2023/10/09 06:24:18;;;;;;;1999.90;999.90;;;18.10;99.90;;;;;;5116468;28;20398;-68
2023/10/09 06:29:50;;;;;;;1999.90;999.90;;;18.10;99.90;;;;;;5116460;28;20437;-69
2023/10/09 06:34:46;;;;;;;1999.90;999.90;;;18.10;99.90;;;;;;5116172;28;20405;-69
2023/10/09 06:45:16;;;;;;;1999.90;999.90;;;18.20;99.90;;;;;;5115984;28;20251;-70
2023/10/09 06:55:49;;;;;;;1999.90;999.90;;;18.10;99.90;;;;;;5115724;28;20480;-69
2023/10/09 06:58:28;;;;;;;1999.90;999.90;;;18.10;99.90;;;;;;5115571;28;20170;-69
2023/10/09 07:03:29;;;;;;;1999.90;999.90;;;18.10;99.90;;;;;;5115614;28;20772;-69
2023/10/09 07:06:23;;;;;;;1999.90;999.90;;;18.10;99.90;;;;;;5115511;28;20391;-70
2023/10/09 07:17:21;;;;;;;1999.90;999.90;;;18.30;99.90;;;;;;5094992;28;20415;-70
2023/10/09 07:24:58;;;;;;;1999.90;999.90;;;18.50;99.90;;;;;;5101264;28;20924;-68
2023/10/09 07:38:09;;;;;;;1999.90;999.90;;;18.40;99.90;;;;;;5113691;28;20930;-69
2023/10/09 07:49:14;;;;;;;1999.90;999.90;;;18.50;99.90;;;;;;5101927;28;20446;-69
2023/10/09 07:51:46;;;;;;;1999.90;999.90;;;18.40;99.90;;;;;;5093112;28;20469;-69
2023/10/09 07:54:14;;;;;;;1999.90;999.90;;;18.40;99.90;;;;;;5093216;28;20432;-69
2023/10/09 07:56:45;;;;;;;1999.90;999.90;;;18.40;99.90;;;;;;5093032;28;20400;-69
2023/10/09 07:59:11;;;;;;;1999.90;999.90;;;18.40;99.90;;;;;;5092866;28;20403;-69
2023/10/09 08:01:52;;;;;;;1999.90;999.90;;;18.40;99.90;;;;;;5092820;28;20459;-69
2023/10/09 08:04:37;;;;;;;1999.90;999.90;;;18.40;99.90;;;;;;5087969;28;20430;-68
2023/10/09 08:07:19;;;;;;;1999.90;999.90;;;18.40;99.90;;;;;;5097994;28;20402;-69
2023/10/09 08:09:48;;;;;;;1999.90;999.90;;;18.50;99.90;;;;;;5097281;28;20399;-70
2023/10/09 08:12:39;;;;;;;1999.90;999.90;;;18.50;99.90;;;;;;5066290;28;1112317;-69
2023/10/09 08:18:09;;;;;;;1999.90;999.90;;;18.60;99.90;;;;;;5097760;28;20411;-68
2023/10/09 08:20:51;;;;;;;1999.90;999.90;;;18.70;99.90;;;;;;5098984;28;20452;-69
2023/10/09 08:23:28;;;;;;;1999.90;999.90;;;18.70;99.90;;;;;;5093823;28;20402;-70
2023/10/09 08:26:13;;;;;;;1999.90;999.90;;;18.60;99.90;;;;;;5093698;28;20406;-69
2023/10/09 08:28:45;;;;;;;1999.90;999.90;;;18.70;99.90;;;;;;5093534;28;20541;-69
2023/10/09 08:31:19;;;;;;;1999.90;999.90;;;18.80;99.90;;;;;;5098891;28;20428;-70
2023/10/09 08:33:57;;;;;;;1999.90;999.90;;;18.90;99.90;;;;;;5105317;28;20401;-70
2023/10/09 08:36:36;;;;;;;1999.90;999.90;;;19.00;99.90;;;;;;5113826;28;20486;-69
2023/10/09 08:39:15;;;;;;;1999.90;999.90;;;19.10;99.90;;;;;;5114033;28;20779;-70
2023/10/09 08:41:40;;;;;;;1999.90;999.90;;;19.10;99.90;;;;;;5112967;28;20809;-69
2023/10/09 08:44:07;;;;;;;1999.90;999.90;;;19.10;99.90;;;;;;5113758;28;20411;-69
2023/10/09 08:46:33;;;;;;;1999.90;999.90;;;19.10;99.90;;;;;;5113576;28;20666;-69
2023/10/09 08:48:59;;;;;;;1999.90;999.90;;;19.10;99.90;;;;;;5113589;28;20414;-69
2023/10/09 08:51:27;;;;;;;1999.90;999.90;;;19.10;99.90;;;;;;5095342;28;20445;-73
2023/10/09 08:53:53;;;;;;;1999.90;999.90;;;19.10;99.90;;;;;;5084776;28;20222;-68
2023/10/09 08:56:24;;;;;;;1999.90;999.90;;;19.20;99.90;;;;;;5098016;28;20413;-70
2023/10/09 08:58:57;;;;;;;1999.90;999.90;;;19.30;99.90;;;;;;5098034;28;20437;-72
2023/10/09 09:01:24;;;;;;;1999.90;999.90;;;19.40;99.90;;;;;;5100137;28;20952;-72
2023/10/09 09:03:51;;;;;;;1999.90;999.90;;;19.40;99.90;;;;;;5095038;28;20437;-74
2023/10/09 09:06:19;;;;;;;1999.90;999.90;;;19.40;99.90;;;;;;5078612;28;20830;-71
2023/10/09 09:08:46;;;;;;;1999.90;999.90;;;19.60;99.90;;;;;;5096198;28;21163;-72
2023/10/09 09:11:30;;;;;;;1999.90;999.90;;;19.80;99.90;;;;;;5102264;28;20447;-70
2023/10/09 09:14:02;;;;;;;1999.90;999.90;;;19.80;99.90;;;;;;5097082;28;20446;-68
2023/10/09 09:16:32;;;;;;;1999.90;999.90;;;19.80;99.90;;;;;;5096734;28;20505;-69
2023/10/09 09:19:17;;;;;;;1999.90;999.90;;;19.90;99.90;;;;;;5107010;28;20407;-67
2023/10/09 09:21:54;;;;;;;1999.90;999.90;;;19.90;99.90;;;;;;5098620;28;20457;-69
2023/10/09 09:26:47;;;;;;;1999.90;999.90;;;20.10;99.90;;;;;;5090425;28;20428;-70
2023/10/09 09:29:13;;;;;;;1999.90;999.90;;;20.20;99.90;;;;;;5099645;28;20513;-70
2023/10/09 09:31:52;;;;;;;1999.90;999.90;;;20.40;99.90;;;;;;5099663;28;20431;-71
2023/10/09 09:34:22;;;;;;;1999.90;999.90;;;20.50;99.90;;;;;;5098496;28;20422;-73
2023/10/09 09:36:53;;;;;;;1999.90;999.90;;;20.50;99.90;;;;;;5099191;28;20914;-70
2023/10/09 09:39:27;;;;;;;1999.90;999.90;;;20.50;99.90;;;;;;5107854;28;20405;-70
2023/10/09 09:42:03;;;;;;;1999.90;999.90;;;20.60;99.90;;;;;;5099070;28;20489;-70
2023/10/09 09:44:33;;;;;;;1999.90;999.90;;;20.70;99.90;;;;;;5102527;28;20440;-69
2023/10/09 09:47:00;;;;;;;1999.90;999.90;;;20.80;99.90;;;;;;5089344;28;20417;-70
2023/10/09 09:49:31;;;;;;;1999.90;999.90;;;20.90;99.90;;;;;;5088463;28;20791;-70
2023/10/09 09:52:01;;;;;;;1999.90;999.90;;;21.00;99.90;;;;;;5096885;28;20431;-69
2023/10/09 09:54:27;;;;;;;1999.90;999.90;;;21.10;99.90;;;;;;5102114;28;20414;-69
2023/10/09 09:56:57;;;;;;;1999.90;999.90;;;21.10;99.90;;;;;;5106566;28;20446;-69
2023/10/09 09:59:29;;;;;;;1999.90;999.90;;;21.20;99.90;;;;;;5102905;28;20411;-70
2023/10/09 10:02:06;;;;;;;1999.90;999.90;;;21.20;99.90;;;;;;5092612;28;20499;-69
2023/10/09 10:04:35;;;;;;;1999.90;999.90;;;21.30;99.90;;;;;;5095448;28;20425;-69
2023/10/09 10:07:08;;;;;;;1999.90;999.90;;;21.40;99.90;;;;;;5098497;28;21139;-69
2023/10/09 10:09:38;;;;;;;1999.90;999.90;;;21.60;99.90;;;;;;5106952;28;20421;-69
2023/10/09 10:12:10;;;;;;;1999.90;999.90;;;21.60;99.90;;;;;;5096807;28;20826;-68
2023/10/09 10:14:59;;;;;;;1999.90;999.90;;;21.60;99.90;;;;;;5103558;28;20417;-69
2023/10/09 10:17:29;;;;;;;1999.90;999.90;;;21.70;99.90;;;;;;5107364;28;20422;-71
2023/10/09 10:19:59;;;;;;;1999.90;999.90;;;21.80;99.90;;;;;;5108735;28;20425;-70
2023/10/09 10:22:29;;;;;;;1999.90;999.90;;;22.00;99.90;;;;;;5091326;28;20451;-72
2023/10/09 10:24:57;;;;;;;1999.90;999.90;;;22.10;99.90;;;;;;5088242;28;20372;-69
2023/10/09 10:27:31;;;;;;;1999.90;999.90;;;22.20;99.90;;;;;;5086888;28;20422;-71
2023/10/09 10:30:14;;;;;;;1999.90;999.90;;;22.10;99.90;;;;;;5086679;28;20414;-69
2023/10/09 10:32:52;;;;;;;1999.90;999.90;;;22.10;99.20;;;;;;5088217;28;20412;-73
2023/10/09 10:35:39;;;;;;;1999.90;999.90;;;22.10;99.90;;;;;;5087572;28;20993;-73
2023/10/09 10:38:36;;;;;;;1999.90;999.90;;;22.10;99.50;;;;;;5086411;28;20419;-70
2023/10/09 10:41:16;;;;;;;1999.90;999.90;;;22.10;98.00;;;;;;5094929;28;20549;-70
2023/10/09 10:46:52;;;;;;;1999.90;999.90;;;22.30;97.50;;;;;;5106962;28;20411;-70
2023/10/09 10:49:21;;;;;;;1999.90;999.90;;;22.30;97.50;;;;;;5103950;28;20418;-70
2023/10/09 10:52:01;;;;;;;1999.90;999.90;;;22.40;96.60;;;;;;5093862;28;20509;-70
2023/10/09 10:57:00;;;;;;;1999.90;999.90;;;22.50;94.80;;;;;;5097997;28;20420;-71
2023/10/09 10:59:36;;;;;;;1999.90;999.90;;;22.60;95.40;;;;;;5094468;28;20431;-69
2023/10/09 11:04:45;;;;;;;1999.90;999.90;;;22.80;92.90;;;;;;5108874;28;20529;-70
2023/10/09 11:07:16;;;;;;;1999.90;999.90;;;22.90;92.50;;;;;;5110663;28;20474;-69
2023/10/09 11:12:37;;;;;;;1999.90;999.90;;;23.00;89.40;;;;;;5110941;28;20442;-69
2023/10/09 11:18:07;;;;;;;1999.90;999.90;;;23.40;86.10;;;;;;5110833;28;20411;-69
2023/10/09 11:20:38;;;;;;;1999.90;999.90;;;23.60;84.10;;;;;;5110349;28;20878;-70
2023/10/09 11:25:50;;;;;;;1999.90;999.90;;;24.00;69.70;;;;;;5111093;28;20435;-70
2023/10/09 11:28:42;;;;;;;1999.90;999.90;;;24.10;78.70;;;;;;5110330;28;20422;-71
2023/10/09 11:31:12;;;;;;;1999.90;999.90;;;24.00;76.00;;;;;;5110376;28;20796;-69
2023/10/09 11:33:51;;;;;;;1999.90;999.90;;;24.30;76.50;;;;;;5110004;28;20424;-69
2023/10/09 11:36:34;;;;;;;1999.90;999.90;;;24.20;73.90;;;;;;5109533;28;20389;-69
2023/10/09 11:39:22;;;;;;;1999.90;999.90;;;24.00;72.40;;;;;;5110679;28;20475;-69
2023/10/09 11:41:49;;;;;;;1999.90;999.90;;;23.80;68.40;;;;;;5110316;28;20835;-70
2023/10/09 11:44:25;;;;;;;1999.90;999.90;;;23.70;73.70;;;;;;5111122;28;20498;-69
2023/10/09 11:46:58;;;;;;;1999.90;999.90;;;23.70;77.10;;;;;;5110883;28;20796;-70
2023/10/09 11:49:34;;;;;;;1999.90;999.90;;;23.70;77.60;;;;;;5110189;28;20731;-69
2023/10/09 11:52:35;;;;;;;1999.90;999.90;;;23.70;75.80;;;;;;5109825;28;20935;-69
2023/10/09 11:54:56;;;;;;;1999.90;999.90;;;23.70;72.50;;;;;;5109671;28;20489;-69
2023/10/09 11:57:30;;;;;;;1999.90;999.90;;;23.70;78.90;;;;;;5110383;28;20837;-69
2023/10/09 11:59:59;;;;;;;1999.90;999.90;;;23.60;76.70;;;;;;5110593;28;20466;-69
2023/10/09 12:02:25;;;;;;;1999.90;999.90;;;23.60;74.30;;;;;;5110146;28;20740;-70
2023/10/09 12:04:51;;;;;;;1999.90;999.90;;;23.60;79.60;;;;;;5109768;28;20391;-70
2023/10/09 12:07:20;;;;;;;1999.90;999.90;;;23.60;76.10;;;;;;5110428;28;20182;-69
2023/10/09 12:09:48;;;;;;;1999.90;999.90;;;23.50;75.40;;;;;;5110267;28;20931;-69
2023/10/09 12:12:13;;;;;;;1999.90;999.90;;;23.60;76.50;;;;;;5109150;28;20832;-70
2023/10/09 12:14:39;;;;;;;1999.90;999.90;;;23.40;80.30;;;;;;5109361;28;20412;-70
2023/10/09 12:17:05;;;;;;;1999.90;999.90;;;23.60;78.50;;;;;;5108660;28;20643;-69
2023/10/09 12:19:36;;;;;;;1999.90;999.90;;;23.60;79.10;;;;;;5109706;28;20170;-69
2023/10/09 12:22:04;;;;;;;1999.90;999.90;;;23.40;80.10;;;;;;5109451;28;20430;-69
2023/10/09 12:24:31;;;;;;;1999.90;999.90;;;23.40;80.10;;;;;;5110369;28;20757;-69
2023/10/09 12:26:57;;;;;;;1999.90;999.90;;;23.50;81.00;;;;;;5109597;28;20932;-69
2023/10/09 12:29:23;;;;;;;1999.90;999.90;;;23.50;82.70;;;;;;5109208;28;20556;-69
2023/10/09 12:31:58;;;;;;;1999.90;999.90;;;23.40;83.10;;;;;;5109555;28;20485;-70
2023/10/09 12:34:26;;;;;;;1999.90;999.90;;;23.30;82.10;;;;;;5109319;28;20430;-69
2023/10/09 12:36:56;;;;;;;1999.90;999.90;;;23.30;88.90;;;;;;5109482;28;20646;-70
2023/10/09 12:39:22;;;;;;;1999.90;999.90;;;23.40;87.10;;;;;;5109080;28;20419;-69
2023/10/09 12:41:48;;;;;;;1999.90;999.90;;;23.40;87.90;;;;;;5108880;28;20815;-70
2023/10/09 12:44:20;;;;;;;1999.90;999.90;;;23.50;86.40;;;;;;5109642;28;20181;-69
2023/10/09 12:46:54;;;;;;;1999.90;999.90;;;23.60;83.70;;;;;;5109348;28;20411;-68
2023/10/09 12:49:27;;;;;;;1999.90;999.90;;;23.70;83.10;;;;;;5094703;28;20419;-68
2023/10/09 12:51:53;;;;;;;1999.90;999.90;;;23.70;80.70;;;;;;5098913;28;20466;-69
2023/10/09 12:54:26;;;;;;;1999.90;999.90;;;23.80;74.10;;;;;;5100974;28;20821;-70
2023/10/09 12:56:55;;;;;;;1999.90;999.90;;;23.80;74.50;;;;;;5098054;28;20413;-73
2023/10/09 12:59:21;;;;;;;1999.90;999.90;;;23.70;68.20;;;;;;5096890;28;20402;-68
2023/10/09 13:01:52;;;;;;;1999.90;999.90;;;23.60;69.20;;;;;;5097870;28;20429;-69
2023/10/09 13:04:22;;;;;;;1999.90;999.90;;;23.60;70.20;;;;;;5087979;28;20411;-71
2023/10/09 13:06:51;;;;;;;1999.90;999.90;;;23.60;72.10;;;;;;5088817;28;20423;-71
2023/10/09 13:09:35;;;;;;;1999.90;999.90;;;23.60;74.40;;;;;;5088477;28;20431;-70
2023/10/09 13:12:01;;;;;;;1999.90;999.90;;;23.40;74.80;;;;;;5098476;28;20451;-70
2023/10/09 13:14:28;;;;;;;1999.90;999.90;;;23.40;71.60;;;;;;5107758;28;20790;-71
2023/10/09 13:16:54;;;;;;;1999.90;999.90;;;23.40;70.30;;;;;;5107991;28;20877;-70
2023/10/09 13:19:24;;;;;;;1999.90;999.90;;;23.30;73.10;;;;;;5109031;28;20461;-70
2023/10/09 13:21:50;;;;;;;1999.90;999.90;;;23.30;70.10;;;;;;5097337;28;20475;-70
2023/10/09 13:24:15;;;;;;;1999.90;999.90;;;23.40;71.00;;;;;;5108303;28;20394;-72
2023/10/09 13:26:46;;;;;;;1999.90;999.90;;;23.40;69.80;;;;;;5108420;28;20407;-71
2023/10/09 13:29:12;;;;;;;1999.90;999.90;;;23.40;70.30;;;;;;5106368;28;20176;-70
2023/10/09 13:31:40;;;;;;;1999.90;999.90;;;23.50;68.80;;;;;;5089949;28;20410;-70
2023/10/09 13:34:06;;;;;;;1999.90;999.90;;;23.60;72.50;;;;;;5091863;28;20942;-70
2023/10/09 13:36:33;;;;;;;1999.90;999.90;;;23.50;72.10;;;;;;5102029;28;20407;-70
2023/10/09 13:41:58;;;;;;;1999.90;999.90;;;23.50;68.80;;;;;;5108147;28;20470;-70
2023/10/09 13:44:29;;;;;;;1999.90;999.90;;;23.60;67.80;;;;;;5089805;28;20522;-68
2023/10/09 13:47:01;;;;;;;1999.90;999.90;;;23.60;67.50;;;;;;5093866;28;20418;-70
2023/10/09 13:49:32;;;;;;;1999.90;999.90;;;23.50;66.80;;;;;;5092470;28;20412;-70
2023/10/09 13:51:59;;;;;;;1999.90;999.90;;;23.50;69.80;;;;;;5099018;28;20438;-71
2023/10/09 13:56:58;;;;;;;1999.90;999.90;;;23.50;69.90;;;;;;5107597;28;20423;-70
2023/10/09 13:59:27;;;;;;;1999.90;999.90;;;23.70;68.90;;;;;;5107554;28;20894;-70
2023/10/09 14:01:59;;;;;;;1999.90;999.90;;;23.90;63.60;;;;;;5107311;28;20425;-68
2023/10/09 14:04:26;;;;;;;1999.90;999.90;;;24.20;61.50;;;;;;5107451;28;20416;-68
2023/10/09 14:06:59;;;;;;;1999.90;999.90;;;24.40;59.60;;;;;;5094129;28;20899;-69
2023/10/09 14:09:31;;;;;;;1999.90;999.90;;;24.70;57.80;;;;;;5089135;28;20416;-69
2023/10/09 14:12:08;;;;;;;1999.90;999.90;;;25.00;56.20;;;;;;5097522;28;20481;-69
2023/10/09 14:14:46;;;;;;;1999.90;999.90;;;25.30;54.30;;;;;;5086904;28;20880;-69
2023/10/09 14:17:19;;;;;;;1999.90;999.90;;;25.60;53.00;;;;;;5095087;28;20432;-69
2023/10/09 14:19:47;;;;;;;1999.90;999.90;;;25.70;48.00;;;;;;5103268;28;20397;-69
2023/10/09 14:22:17;;;;;;;1999.90;999.90;;;25.90;48.60;;;;;;5107168;28;20398;-70
2023/10/09 14:24:47;;;;;;;1999.90;999.90;;;25.90;46.10;;;;;;5107898;28;20415;-71
2023/10/09 14:27:17;;;;;;;1999.90;999.90;;;26.00;44.00;;;;;;5108077;28;20378;-70
2023/10/09 14:29:45;;;;;;;1999.90;999.90;;;26.00;45.20;;;;;;5107447;28;20419;-70
2023/10/09 14:32:13;;;;;;;1999.90;999.90;;;25.80;42.30;;;;;;5106985;28;20405;-70
2023/10/09 14:34:42;;;;;;;1999.90;999.90;;;25.70;44.20;;;;;;5099446;28;20396;-70
2023/10/09 14:37:11;;;;;;;1999.90;999.90;;;25.60;45.10;;;;;;5082913;28;20417;-69
2023/10/09 14:39:40;;;;;;;1999.90;999.90;;;25.30;47.80;;;;;;5087123;28;20735;-69
2023/10/09 14:42:09;;;;;;;1999.90;999.90;;;25.30;49.80;;;;;;5084600;28;20949;-69
2023/10/09 14:44:38;;;;;;;1999.90;999.90;;;25.40;50.40;;;;;;5090584;28;20880;-69
2023/10/09 14:47:07;;;;;;;1999.90;999.90;;;25.40;46.60;;;;;;5094045;28;20459;-69
2023/10/09 14:49:37;;;;;;;1999.90;999.90;;;25.50;47.20;;;;;;5090980;28;20418;-70
2023/10/09 14:52:04;;;;;;;1999.90;999.90;;;25.20;49.00;;;;;;5086664;28;20523;-70
2023/10/09 14:54:29;;;;;;;1999.90;999.90;;;24.70;50.50;;;;;;5093902;28;20970;-69
2023/10/09 14:56:56;;;;;;;1999.90;999.90;;;24.60;54.00;;;;;;5093888;28;20383;-69
2023/10/09 14:59:22;;;;;;;1999.90;999.90;;;24.80;52.80;;;;;;5093722;28;20162;-69
2023/10/09 15:01:50;;;;;;;1999.90;999.90;;;25.10;53.10;;;;;;5085764;28;20870;-68